PWSweather.com
Personal Weather Stations
Station Observations
KTXDECATUR
Wildwood, Decatur, TX 76234

WildwoodDecatur, TX 76234

Lat: 33.2634, Lon: -97.6651

Elevation: 800

Station Type: Davis Vantage Pro 2

http://weather.wildwoodnaturist.com

Latest ConditionsUpdated 11:50:01 AM CDT Sunday, Sep 23, 2018
Currently Today's Max Today's Min Today's Average
Temperature 68.2°F20.1°C 68.3°F20.2°C 64.5°F18.1°C 65.3°F18.5°C
Dew Point 66.4°F19.1°C 66.5°F19.2°C 63.5°F17.5°C 64.2°F17.9°C
Winds 6.9 mph NE11.1 kmh NE 8.1 mph -13.0 kmh - - 4.6 mph 7.4 kmh
Wind Gusts 8.1 mph13.0 kmh 11.5 mph18.5 kmh - -
Humidity 94% 97% 94% 96%
Pressure 29.93 in1013.5 mb 29.93 in1013.5 mb 29.87 in1011.5 mb -
Precipitation - 0.07 in1.8 mm - -
Hour Temp Dew Point Humidity Winds Wind Gusts Pressure Precip Precip Rate Daily Precip Total
11:50 AM 68.2°F20.1°C 66.4°F19.1°C 94% 6.9 mph NE11.1 kmh NE 8.1 mph13.0 kmh 29.93 in1013.5 mb - 0.00 in0.0 mm 0.07 in1.8 mm
11:45 AM 68.3°F20.2°C 66.5°F19.2°C 94% 5.8 mph NE9.3 kmh NE 6.9 mph11.1 kmh 29.93 in1013.5 mb - 0.00 in0.0 mm 0.07 in1.8 mm
11:40 AM 68.0°F20.0°C 66.2°F19.0°C 94% 3.5 mph NE5.6 kmh NE 4.6 mph7.4 kmh 29.93 in1013.5 mb - 0.00 in0.0 mm 0.07 in1.8 mm
11:30 AM 67.8°F19.9°C 66.0°F18.9°C 94% 4.6 mph NNE7.4 kmh NNE 6.9 mph11.1 kmh 29.93 in1013.5 mb - 0.01 in0.3 mm 0.07 in1.8 mm
11:20 AM 67.6°F19.8°C 65.8°F18.8°C 94% 8.1 mph NNE13.0 kmh NNE 9.2 mph14.8 kmh 29.93 in1013.5 mb - 0.00 in0.0 mm 0.06 in1.5 mm
11:15 AM 67.6°F19.8°C 65.8°F18.8°C 94% 5.8 mph NNE9.3 kmh NNE 11.5 mph18.5 kmh 29.93 in1013.5 mb - 0.00 in0.0 mm 0.06 in1.5 mm
11:10 AM 67.6°F19.8°C 65.8°F18.8°C 94% 4.6 mph NE7.4 kmh NE 5.8 mph9.3 kmh 29.93 in1013.5 mb - 0.00 in0.0 mm 0.06 in1.5 mm
11:00 AM 67.6°F19.8°C 65.8°F18.8°C 94% 6.9 mph NNE11.1 kmh NNE 8.1 mph13.0 kmh 29.93 in1013.5 mb - 0.00 in0.0 mm 0.06 in1.5 mm
10:50 AM 67.7°F19.8°C 66.2°F19.0°C 95% 6.9 mph NE11.1 kmh NE 9.2 mph14.8 kmh 29.93 in1013.5 mb - 0.00 in0.0 mm 0.06 in1.5 mm
10:45 AM 67.5°F19.7°C 66.0°F18.9°C 95% 8.1 mph NNE13.0 kmh NNE 9.2 mph14.8 kmh 29.93 in1013.5 mb - 0.00 in0.0 mm 0.06 in1.5 mm
10:40 AM 67.6°F19.8°C 66.1°F18.9°C 95% 6.9 mph NNE11.1 kmh NNE 8.1 mph13.0 kmh 29.93 in1013.5 mb - 0.00 in0.0 mm 0.06 in1.5 mm
10:30 AM 67.6°F19.8°C 66.1°F18.9°C 95% 3.5 mph NE5.6 kmh NE 5.8 mph9.3 kmh 29.93 in1013.5 mb - 0.00 in0.0 mm 0.06 in1.5 mm
10:20 AM 67.2°F19.6°C 65.7°F18.7°C 95% 5.8 mph NE9.3 kmh NE 8.1 mph13.0 kmh 29.92 in1013.2 mb - 0.00 in0.0 mm 0.06 in1.5 mm
10:15 AM 66.9°F19.4°C 65.4°F18.6°C 95% 5.8 mph NE9.3 kmh NE 10.4 mph16.7 kmh 29.92 in1013.2 mb - 0.00 in0.0 mm 0.06 in1.5 mm
10:10 AM 66.7°F19.3°C 65.2°F18.4°C 95% 5.8 mph NNE9.3 kmh NNE 9.2 mph14.8 kmh 29.92 in1013.2 mb - 0.00 in0.0 mm 0.06 in1.5 mm
10:00 AM 66.5°F19.2°C 65.0°F18.3°C 95% 4.6 mph NE7.4 kmh NE 4.6 mph7.4 kmh 29.91 in1012.9 mb - 0.00 in0.0 mm 0.06 in1.5 mm
09:50 AM 66.5°F19.2°C 65.3°F18.5°C 96% 4.6 mph NE7.4 kmh NE 5.8 mph9.3 kmh 29.91 in1012.9 mb - 0.00 in0.0 mm 0.06 in1.5 mm
09:45 AM 66.5°F19.2°C 65.3°F18.5°C 96% 5.8 mph N9.3 kmh N 6.9 mph11.1 kmh 29.91 in1012.9 mb - 0.00 in0.0 mm 0.06 in1.5 mm
09:40 AM 66.5°F19.2°C 65.3°F18.5°C 96% 5.8 mph NNE9.3 kmh NNE 6.9 mph11.1 kmh 29.91 in1012.9 mb - 0.00 in0.0 mm 0.06 in1.5 mm
09:30 AM 66.3°F19.1°C 65.1°F18.4°C 96% 4.6 mph NNE7.4 kmh NNE 6.9 mph11.1 kmh 29.91 in1012.9 mb - 0.00 in0.0 mm 0.06 in1.5 mm
09:20 AM 65.9°F18.8°C 64.8°F18.2°C 96% 3.5 mph NE5.6 kmh NE 5.8 mph9.3 kmh 29.91 in1012.9 mb - 0.00 in0.0 mm 0.06 in1.5 mm
09:15 AM 65.8°F18.8°C 64.6°F18.1°C 96% 3.5 mph NE5.6 kmh NE 5.8 mph9.3 kmh 29.91 in1012.9 mb - 0.00 in0.0 mm 0.06 in1.5 mm
09:10 AM 65.7°F18.7°C 64.5°F18.1°C 96% 3.5 mph NNE5.6 kmh NNE 5.8 mph9.3 kmh 29.91 in1012.9 mb - 0.00 in0.0 mm 0.06 in1.5 mm
09:00 AM 65.6°F18.7°C 64.4°F18.0°C 96% 3.5 mph NNE5.6 kmh NNE 4.6 mph7.4 kmh 29.91 in1012.9 mb - 0.00 in0.0 mm 0.06 in1.5 mm
08:50 AM 65.4°F18.6°C 64.2°F17.9°C 96% 5.8 mph NE9.3 kmh NE 5.8 mph9.3 kmh 29.91 in1012.9 mb - 0.00 in0.0 mm 0.06 in1.5 mm
08:45 AM 65.5°F18.6°C 64.6°F18.1°C 97% 4.6 mph NNE7.4 kmh NNE 4.6 mph7.4 kmh 29.91 in1012.9 mb - 0.00 in0.0 mm 0.06 in1.5 mm
08:40 AM 65.4°F18.6°C 64.5°F18.1°C 97% 5.8 mph NE9.3 kmh NE 6.9 mph11.1 kmh 29.91 in1012.9 mb - 0.00 in0.0 mm 0.06 in1.5 mm
08:30 AM 65.2°F18.4°C 64.3°F17.9°C 97% 3.5 mph NNE5.6 kmh NNE 4.6 mph7.4 kmh 29.90 in1012.5 mb - 0.00 in0.0 mm 0.06 in1.5 mm
08:20 AM 65.0°F18.3°C 64.1°F17.8°C 97% 4.6 mph N7.4 kmh N 6.9 mph11.1 kmh 29.90 in1012.5 mb - 0.00 in0.0 mm 0.06 in1.5 mm
08:15 AM 64.9°F18.3°C 64.0°F17.8°C 97% 2.3 mph N3.7 kmh N 4.6 mph7.4 kmh 29.90 in1012.5 mb - 0.00 in0.0 mm 0.06 in1.5 mm
08:10 AM 64.9°F18.3°C 64.0°F17.8°C 97% 3.5 mph NNE5.6 kmh NNE 5.8 mph9.3 kmh 29.90 in1012.5 mb - 0.00 in0.0 mm 0.06 in1.5 mm
08:00 AM 64.8°F18.2°C 63.9°F17.7°C 97% 3.5 mph NNE5.6 kmh NNE 3.5 mph5.6 kmh 29.90 in1012.5 mb - 0.00 in0.0 mm 0.06 in1.5 mm
07:50 AM 64.9°F18.3°C 64.0°F17.8°C 97% 2.3 mph NNE3.7 kmh NNE 4.6 mph7.4 kmh 29.90 in1012.5 mb - 0.00 in0.0 mm 0.06 in1.5 mm
07:45 AM 64.8°F18.2°C 63.9°F17.7°C 97% 4.6 mph NNE7.4 kmh NNE 6.9 mph11.1 kmh 29.90 in1012.5 mb - 0.00 in0.0 mm 0.06 in1.5 mm
07:40 AM 64.8°F18.2°C 63.9°F17.7°C 97% 4.6 mph N7.4 kmh N 4.6 mph7.4 kmh 29.89 in1012.2 mb - 0.01 in0.3 mm 0.06 in1.5 mm
07:30 AM 64.7°F18.2°C 63.8°F17.7°C 97% 3.5 mph NNE5.6 kmh NNE 4.6 mph7.4 kmh 29.89 in1012.2 mb - 0.00 in0.0 mm 0.05 in1.3 mm
07:20 AM 64.7°F18.2°C 63.8°F17.7°C 97% 4.6 mph N7.4 kmh N 6.9 mph11.1 kmh 29.89 in1012.2 mb - 0.00 in0.0 mm 0.05 in1.3 mm
07:15 AM 64.7°F18.2°C 63.8°F17.7°C 97% 5.8 mph N9.3 kmh N 6.9 mph11.1 kmh 29.89 in1012.2 mb - 0.00 in0.0 mm 0.05 in1.3 mm
07:10 AM 64.7°F18.2°C 63.8°F17.7°C 97% 4.6 mph NNE7.4 kmh NNE 5.8 mph9.3 kmh 29.89 in1012.2 mb - 0.00 in0.0 mm 0.05 in1.3 mm
07:00 AM 64.7°F18.2°C 63.8°F17.7°C 97% 3.5 mph NNE5.6 kmh NNE 6.9 mph11.1 kmh 29.89 in1012.2 mb - 0.00 in0.0 mm 0.05 in1.3 mm
06:50 AM 64.7°F18.2°C 63.8°F17.7°C 97% 4.6 mph N7.4 kmh N 6.9 mph11.1 kmh 29.89 in1012.2 mb - 0.00 in0.0 mm 0.05 in1.3 mm
06:45 AM 64.7°F18.2°C 63.8°F17.7°C 97% 3.5 mph N5.6 kmh N 4.6 mph7.4 kmh 29.88 in1011.9 mb - 0.00 in0.0 mm 0.05 in1.3 mm
06:40 AM 64.7°F18.2°C 63.9°F17.7°C 97% 3.5 mph N5.6 kmh N 6.9 mph11.1 kmh 29.88 in1011.9 mb - 0.01 in0.3 mm 0.05 in1.3 mm
06:30 AM 64.7°F18.2°C 63.8°F17.7°C 97% 4.6 mph N7.4 kmh N 4.6 mph7.4 kmh 29.88 in1011.9 mb - 0.01 in0.3 mm 0.05 in1.3 mm
06:20 AM 64.7°F18.2°C 63.8°F17.7°C 97% 3.5 mph N5.6 kmh N 6.9 mph11.1 kmh 29.88 in1011.9 mb - 0.00 in0.0 mm 0.04 in1.0 mm
06:15 AM 64.6°F18.1°C 63.7°F17.6°C 97% 3.5 mph N5.6 kmh N 5.8 mph9.3 kmh 29.88 in1011.9 mb - 0.00 in0.0 mm 0.04 in1.0 mm
06:10 AM 64.5°F18.1°C 63.6°F17.6°C 97% 4.6 mph NNE7.4 kmh NNE 5.8 mph9.3 kmh 29.88 in1011.9 mb - 0.00 in0.0 mm 0.04 in1.0 mm
06:00 AM 64.5°F18.1°C 63.6°F17.6°C 97% 4.6 mph NNE7.4 kmh NNE 6.9 mph11.1 kmh 29.88 in1011.9 mb - 0.00 in0.0 mm 0.04 in1.0 mm
05:50 AM 64.6°F18.1°C 63.7°F17.6°C 97% 3.5 mph N5.6 kmh N 4.6 mph7.4 kmh 29.87 in1011.5 mb - 0.00 in0.0 mm 0.04 in1.0 mm
05:45 AM 64.6°F18.1°C 63.7°F17.6°C 97% 3.5 mph NNE5.6 kmh NNE 4.6 mph7.4 kmh 29.87 in1011.5 mb - 0.00 in0.0 mm 0.04 in1.0 mm
05:40 AM 64.6°F18.1°C 63.7°F17.6°C 97% 4.6 mph NNE7.4 kmh NNE 4.6 mph7.4 kmh 29.87 in1011.5 mb - 0.00 in0.0 mm 0.04 in1.0 mm
05:30 AM 64.6°F18.1°C 63.7°F17.6°C 97% 3.5 mph N5.6 kmh N 4.6 mph7.4 kmh 29.87 in1011.5 mb - 0.00 in0.0 mm 0.04 in1.0 mm
05:20 AM 64.6°F18.1°C 63.7°F17.6°C 97% 3.5 mph NNE5.6 kmh NNE 4.6 mph7.4 kmh 29.87 in1011.5 mb - 0.00 in0.0 mm 0.04 in1.0 mm
05:15 AM 64.6°F18.1°C 63.7°F17.6°C 97% 4.6 mph NNE7.4 kmh NNE 6.9 mph11.1 kmh 29.87 in1011.5 mb - 0.00 in0.0 mm 0.04 in1.0 mm
05:10 AM 64.6°F18.1°C 63.7°F17.6°C 97% 4.6 mph NNE7.4 kmh NNE 5.8 mph9.3 kmh 29.87 in1011.5 mb - 0.01 in0.3 mm 0.04 in1.0 mm
05:00 AM 64.6°F18.1°C 63.7°F17.6°C 97% 3.5 mph NNE5.6 kmh NNE 4.6 mph7.4 kmh 29.87 in1011.5 mb - 0.00 in0.0 mm 0.03 in0.8 mm
04:50 AM 64.6°F18.1°C 63.7°F17.6°C 97% 4.6 mph NE7.4 kmh NE 6.9 mph11.1 kmh 29.87 in1011.5 mb - 0.00 in0.0 mm 0.03 in0.8 mm
04:45 AM 64.6°F18.1°C 63.7°F17.6°C 97% 4.6 mph N7.4 kmh N 6.9 mph11.1 kmh 29.87 in1011.5 mb - 0.00 in0.0 mm 0.03 in0.8 mm
04:40 AM 64.6°F18.1°C 63.7°F17.6°C 97% 3.5 mph NNE5.6 kmh NNE 6.9 mph11.1 kmh 29.87 in1011.5 mb - 0.00 in0.0 mm 0.03 in0.8 mm
04:30 AM 64.5°F18.1°C 63.6°F17.6°C 97% 4.6 mph NNE7.4 kmh NNE 5.8 mph9.3 kmh 29.87 in1011.5 mb - 0.01 in0.3 mm 0.03 in0.8 mm
04:20 AM 64.6°F18.1°C 63.7°F17.6°C 97% 3.5 mph NNE5.6 kmh NNE 8.1 mph13.0 kmh 29.87 in1011.5 mb - 0.00 in0.0 mm 0.02 in0.5 mm
04:15 AM 64.6°F18.1°C 63.7°F17.6°C 97% 5.8 mph NNE9.3 kmh NNE 6.9 mph11.1 kmh 29.88 in1011.9 mb - 0.00 in0.0 mm 0.02 in0.5 mm
04:10 AM 64.6°F18.1°C 63.7°F17.6°C 97% 3.5 mph NNE5.6 kmh NNE 3.5 mph5.6 kmh 29.88 in1011.9 mb - 0.01 in0.3 mm 0.02 in0.5 mm
04:00 AM 64.5°F18.1°C 63.6°F17.6°C 97% 3.5 mph NE5.6 kmh NE 4.6 mph7.4 kmh 29.88 in1011.9 mb - 0.00 in0.0 mm 0.01 in0.3 mm
03:50 AM 64.5°F18.1°C 63.6°F17.6°C 97% 4.6 mph NNE7.4 kmh NNE 4.6 mph7.4 kmh 29.88 in1011.9 mb - 0.00 in0.0 mm 0.01 in0.3 mm
03:45 AM 64.5°F18.1°C 63.6°F17.6°C 97% 4.6 mph NE7.4 kmh NE 6.9 mph11.1 kmh 29.88 in1011.9 mb - 0.00 in0.0 mm 0.01 in0.3 mm
03:40 AM 64.6°F18.1°C 63.7°F17.6°C 97% 4.6 mph NNE7.4 kmh NNE 6.9 mph11.1 kmh 29.88 in1011.9 mb - 0.00 in0.0 mm 0.01 in0.3 mm
03:30 AM 64.6°F18.1°C 63.7°F17.6°C 97% 4.6 mph NNE7.4 kmh NNE 6.9 mph11.1 kmh 29.88 in1011.9 mb - 0.00 in0.0 mm 0.01 in0.3 mm
03:20 AM 64.6°F18.1°C 63.7°F17.6°C 97% 4.6 mph NNE7.4 kmh NNE 6.9 mph11.1 kmh 29.88 in1011.9 mb - 0.00 in0.0 mm 0.01 in0.3 mm
03:15 AM 64.6°F18.1°C 63.7°F17.6°C 97% 4.6 mph NE7.4 kmh NE 4.6 mph7.4 kmh 29.88 in1011.9 mb - 0.00 in0.0 mm 0.01 in0.3 mm
03:10 AM 64.6°F18.1°C 63.7°F17.6°C 97% 3.5 mph NE5.6 kmh NE 4.6 mph7.4 kmh 29.89 in1012.2 mb - 0.00 in0.0 mm 0.01 in0.3 mm
03:00 AM 64.6°F18.1°C 63.5°F17.5°C 96% 4.6 mph NE7.4 kmh NE 5.8 mph9.3 kmh 29.89 in1012.2 mb - 0.00 in0.0 mm 0.01 in0.3 mm
02:50 AM 64.7°F18.2°C 63.5°F17.5°C 96% 3.5 mph NNE5.6 kmh NNE 4.6 mph7.4 kmh 29.89 in1012.2 mb - 0.01 in0.3 mm 0.01 in0.3 mm
02:45 AM 64.7°F18.2°C 63.5°F17.5°C 96% 3.5 mph NNE5.6 kmh NNE 8.1 mph13.0 kmh 29.89 in1012.2 mb - 0.01 in0.3 mm 0.01 in0.3 mm
02:40 AM 64.7°F18.2°C 63.5°F17.5°C 96% 3.5 mph NE5.6 kmh NE 3.5 mph5.6 kmh 29.89 in1012.2 mb - 0.00 in0.0 mm 0.00 in0.0 mm
02:30 AM 64.7°F18.2°C 63.5°F17.5°C 96% 3.5 mph NNE5.6 kmh NNE 4.6 mph7.4 kmh 29.89 in1012.2 mb - 0.00 in0.0 mm 0.00 in0.0 mm
02:20 AM 64.7°F18.2°C 63.5°F17.5°C 96% 3.5 mph NE5.6 kmh NE 6.9 mph11.1 kmh 29.89 in1012.2 mb - 0.00 in0.0 mm 0.00 in0.0 mm
02:15 AM 64.7°F18.2°C 63.5°F17.5°C 96% 4.6 mph NE7.4 kmh NE 4.6 mph7.4 kmh 29.89 in1012.2 mb - 0.00 in0.0 mm 0.00 in0.0 mm
02:10 AM 64.7°F18.2°C 63.5°F17.5°C 96% 4.6 mph NNE7.4 kmh NNE 4.6 mph7.4 kmh 29.89 in1012.2 mb - 0.00 in0.0 mm 0.00 in0.0 mm
02:00 AM 64.7°F18.2°C 63.5°F17.5°C 96% 4.6 mph NE7.4 kmh NE 5.8 mph9.3 kmh 29.89 in1012.2 mb - 0.00 in0.0 mm 0.00 in0.0 mm
01:50 AM 64.7°F18.2°C 63.5°F17.5°C 96% 5.8 mph NE9.3 kmh NE 6.9 mph11.1 kmh 29.89 in1012.2 mb - 0.00 in0.0 mm 0.00 in0.0 mm
01:45 AM 64.7°F18.2°C 63.5°F17.5°C 96% 4.6 mph NNE7.4 kmh NNE 5.8 mph9.3 kmh 29.89 in1012.2 mb - 0.00 in0.0 mm 0.00 in0.0 mm
01:40 AM 64.8°F18.2°C 63.6°F17.6°C 96% 3.5 mph NNE5.6 kmh NNE 4.6 mph7.4 kmh 29.89 in1012.2 mb - 0.00 in0.0 mm 0.00 in0.0 mm
01:30 AM 64.8°F18.2°C 63.7°F17.6°C 96% 6.9 mph NNE11.1 kmh NNE 8.1 mph13.0 kmh 29.89 in1012.2 mb - 0.00 in0.0 mm 0.00 in0.0 mm
01:20 AM 64.9°F18.3°C 63.7°F17.6°C 96% 4.6 mph NE7.4 kmh NE 6.9 mph11.1 kmh 29.89 in1012.2 mb - 0.00 in0.0 mm 0.00 in0.0 mm
01:15 AM 64.9°F18.3°C 63.7°F17.6°C 96% 4.6 mph NE7.4 kmh NE 6.9 mph11.1 kmh 29.89 in1012.2 mb - 0.00 in0.0 mm 0.00 in0.0 mm
01:10 AM 65.0°F18.3°C 63.8°F17.7°C 96% 3.5 mph NNE5.6 kmh NNE 5.8 mph9.3 kmh 29.89 in1012.2 mb - 0.00 in0.0 mm 0.00 in0.0 mm
01:00 AM 65.1°F18.4°C 63.9°F17.7°C 96% 8.1 mph NE13.0 kmh NE 9.2 mph14.8 kmh 29.90 in1012.5 mb - 0.00 in0.0 mm 0.00 in0.0 mm
12:50 AM 65.1°F18.4°C 64.2°F17.9°C 97% 3.5 mph NE5.6 kmh NE 4.6 mph7.4 kmh 29.90 in1012.5 mb - 0.00 in0.0 mm 0.00 in0.0 mm
12:45 AM 65.0°F18.3°C 63.8°F17.7°C 96% 5.8 mph NE9.3 kmh NE 8.1 mph13.0 kmh 29.89 in1012.2 mb - 0.00 in0.0 mm 0.00 in0.0 mm
12:40 AM 65.0°F18.3°C 64.1°F17.8°C 97% 4.6 mph NE7.4 kmh NE 5.8 mph9.3 kmh 29.89 in1012.2 mb - 0.00 in0.0 mm 0.00 in0.0 mm
12:30 AM 65.0°F18.3°C 63.8°F17.7°C 96% 5.8 mph NE9.3 kmh NE 8.1 mph13.0 kmh 29.90 in1012.5 mb - 0.00 in0.0 mm 0.00 in0.0 mm
12:20 AM 65.1°F18.4°C 64.2°F17.9°C 97% 3.5 mph NE5.6 kmh NE 5.8 mph9.3 kmh 29.90 in1012.5 mb - 0.00 in0.0 mm 0.00 in0.0 mm
12:15 AM 65.1°F18.4°C 64.2°F17.9°C 97% 2.3 mph NE3.7 kmh NE 4.6 mph7.4 kmh 29.90 in1012.5 mb - 0.00 in0.0 mm 0.00 in0.0 mm
12:10 AM 65.0°F18.3°C 64.2°F17.9°C 97% 8.1 mph NE13.0 kmh NE 9.2 mph14.8 kmh 29.90 in1012.5 mb - 0.00 in0.0 mm 0.00 in0.0 mm
12:00 AM 65.0°F18.3°C 63.8°F17.7°C 96% 6.9 mph NE11.1 kmh NE 9.2 mph14.8 kmh 29.90 in1012.5 mb - 0.00 in0.0 mm 0.00 in0.0 mm